createdAt,value
2019-04-07T00:01:27.548Z,19.48
2019-04-07T00:03:57.233Z,19.35
2019-04-07T00:06:27.002Z,19.23
2019-04-07T00:08:56.836Z,19.20
2019-04-07T00:11:26.622Z,16.65
2019-04-07T00:13:57.983Z,17.37
2019-04-07T00:16:27.709Z,19.62
2019-04-07T00:18:57.839Z,19.57
2019-04-07T00:21:28.332Z,17.85
2019-04-07T00:23:58.014Z,17.70
2019-04-07T00:26:27.942Z,18.42
2019-04-07T00:28:57.837Z,17.60
2019-04-07T00:31:30.730Z,17.35
2019-04-07T00:34:00.544Z,17.70
2019-04-07T00:36:30.393Z,16.67
2019-04-07T00:39:01.512Z,17.05
2019-04-07T00:41:32.268Z,17.50
2019-04-07T00:44:02.358Z,17.73
2019-04-07T00:46:32.282Z,18.32
2019-04-07T00:49:01.988Z,16.17
2019-04-07T00:51:32.031Z,18.95
2019-04-07T00:54:01.959Z,18.50
2019-04-07T00:56:31.699Z,19.20
2019-04-07T00:59:02.704Z,18.87
2019-04-07T01:01:32.557Z,19.42
2019-04-07T01:04:02.393Z,19.82
2019-04-07T01:06:32.154Z,19.82
2019-04-07T01:09:01.858Z,18.05
2019-04-07T01:11:33.293Z,19.15
2019-04-07T01:14:03.057Z,19.52
2019-04-07T01:16:32.782Z,19.27
2019-04-07T01:19:02.609Z,18.15
2019-04-07T01:21:32.361Z,19.42
2019-04-07T01:24:03.328Z,19.65
2019-04-07T01:26:34.631Z,19.35
2019-04-07T01:29:04.630Z,19.40
2019-04-07T01:31:35.175Z,18.90
2019-04-07T01:34:05.117Z,19.48
2019-04-07T01:36:34.943Z,18.50
2019-04-07T01:39:09.192Z,20.20
2019-04-07T01:42:05.088Z,19.95
2019-04-07T01:44:57.344Z,19.23
2019-04-07T01:47:33.181Z,19.12
2019-04-07T01:50:16.175Z,19.42
2019-04-07T01:53:05.825Z,19.10
2019-04-07T01:55:45.475Z,19.30
2019-04-07T01:58:32.931Z,20.20
2019-04-07T02:01:17.371Z,20.55
2019-04-07T02:04:12.756Z,19.57
2019-04-07T02:07:08.167Z,18.40
2019-04-07T02:09:49.460Z,20.65
2019-04-07T02:12:38.322Z,19.07
2019-04-07T02:15:16.398Z,19.30
2019-04-07T02:17:52.761Z,18.90
2019-04-07T02:21:04.317Z,19.45
2019-04-07T02:23:52.625Z,19.82
2019-04-07T02:26:40.575Z,18.62
2019-04-07T02:29:38.824Z,19.77
2019-04-07T02:32:27.616Z,19.48
2019-04-07T02:35:17.258Z,21.20
2019-04-07T02:37:55.591Z,19.17
2019-04-07T02:40:32.964Z,19.32
2019-04-07T02:43:34.297Z,19.70
2019-04-07T02:46:21.919Z,19.40
2019-04-07T02:49:10.923Z,19.23
2019-04-07T02:51:54.172Z,20.05
2019-04-07T02:54:43.174Z,19.40
2019-04-07T02:57:19.697Z,19.52
2019-04-07T03:00:07.587Z,19.10
2019-04-07T03:02:56.705Z,18.82
2019-04-07T03:05:34.812Z,19.05
2019-04-07T03:08:23.636Z,19.05
2019-04-07T03:11:11.523Z,18.60
2019-04-07T03:14:03.714Z,18.85
2019-04-07T03:16:42.342Z,17.67
2019-04-07T03:19:41.420Z,19.27
2019-04-07T03:22:33.605Z,19.20
2019-04-07T03:25:11.148Z,19.42
2019-04-07T03:27:59.230Z,16.97
2019-04-07T03:30:45.276Z,18.48
2019-04-07T03:33:37.953Z,19.17
2019-04-07T03:36:20.442Z,19.67
2019-04-07T03:39:26.548Z,19.45
2019-04-07T03:42:24.549Z,18.45
2019-04-07T03:45:13.542Z,18.70
2019-04-07T03:47:47.270Z,19.20
2019-04-07T03:50:23.041Z,19.23
2019-04-07T03:53:10.989Z,18.62
2019-04-07T03:55:56.347Z,18.92
2019-04-07T03:58:50.773Z,18.60
2019-04-07T04:01:38.317Z,19.37
2019-04-07T04:04:25.896Z,18.27
2019-04-07T04:07:20.554Z,17.95
2019-04-07T04:10:11.061Z,18.67
2019-04-07T04:12:49.911Z,18.43
2019-04-07T04:15:26.666Z,18.50
2019-04-07T04:17:57.318Z,18.90
2019-04-07T04:20:28.264Z,19.70
2019-04-07T04:22:58.440Z,19.35
2019-04-07T04:25:28.499Z,19.93
2019-04-07T04:27:59.120Z,20.08
2019-04-07T04:30:29.919Z,18.97
2019-04-07T04:32:59.946Z,18.87
2019-04-07T04:35:30.058Z,19.17
2019-04-07T04:38:00.079Z,18.70
2019-04-07T04:40:32.236Z,18.60
2019-04-07T04:43:03.483Z,18.20
2019-04-07T04:45:33.875Z,18.90
2019-04-07T04:48:04.456Z,17.57
2019-04-07T04:50:35.390Z,18.23
2019-04-07T04:53:06.110Z,18.67
2019-04-07T04:55:36.015Z,19.00
2019-04-07T04:58:05.757Z,20.03
2019-04-07T05:00:36.279Z,18.15
2019-04-07T05:03:07.117Z,19.87
2019-04-07T05:05:37.933Z,19.75
2019-04-07T05:08:08.351Z,20.05
2019-04-07T05:10:38.254Z,16.55
2019-04-07T05:13:07.952Z,19.12
2019-04-07T05:15:37.897Z,20.50
2019-04-07T05:18:08.075Z,19.45
2019-04-07T05:20:37.808Z,18.37
2019-04-07T05:23:08.684Z,19.03
2019-04-07T05:25:39.098Z,18.17
2019-04-07T05:28:09.082Z,18.52
2019-04-07T05:30:39.184Z,19.37
2019-04-07T05:33:09.024Z,18.93
2019-04-07T05:35:39.490Z,19.23
2019-04-07T05:38:09.418Z,20.95
2019-04-07T05:40:39.946Z,18.98
2019-04-07T05:43:10.648Z,19.80
2019-04-07T05:45:41.077Z,19.02
2019-04-07T05:48:10.899Z,19.62
2019-04-07T05:50:40.732Z,19.48
2019-04-07T05:53:13.466Z,19.98
2019-04-07T05:55:42.601Z,19.40
2019-04-07T05:58:14.810Z,20.35
2019-04-07T06:00:46.950Z,19.10
2019-04-07T06:03:16.298Z,18.50
2019-04-07T06:05:48.288Z,19.02
2019-04-07T06:08:25.760Z,20.35
2019-04-07T06:10:50.016Z,19.70
2019-04-07T06:13:19.971Z,19.50
2019-04-07T06:15:51.939Z,18.90
2019-04-07T06:18:21.724Z,18.57
2019-04-07T06:20:52.601Z,17.17
2019-04-07T06:23:24.743Z,18.57
2019-04-07T06:25:56.866Z,19.35
2019-04-07T06:28:26.611Z,17.07
2019-04-07T06:30:59.174Z,18.40
2019-04-07T06:33:28.542Z,17.02
2019-04-07T06:35:59.440Z,18.30
2019-04-07T06:38:33.654Z,17.40
2019-04-07T06:41:02.047Z,16.57
2019-04-07T06:43:35.179Z,18.12
2019-04-07T06:46:27.637Z,16.80
2019-04-07T06:49:05.903Z,15.75
2019-04-07T06:51:52.824Z,16.05
2019-04-07T06:54:40.251Z,15.15
2019-04-07T06:57:18.527Z,15.93
2019-04-07T07:00:10.528Z,17.02
2019-04-07T07:02:51.152Z,16.87
2019-04-07T07:05:30.043Z,16.73
2019-04-07T07:08:11.703Z,17.67
2019-04-07T07:10:50.954Z,16.93
2019-04-07T07:13:43.092Z,17.10
2019-04-07T07:16:33.565Z,17.07
2019-04-07T07:19:24.426Z,17.02
2019-04-07T07:22:15.858Z,16.90
2019-04-07T07:24:46.769Z,15.13
2019-04-07T07:27:16.418Z,15.08
2019-04-07T07:29:47.600Z,16.57
2019-04-07T07:32:18.007Z,16.25
2019-04-07T07:34:47.961Z,15.68
2019-04-07T07:37:18.377Z,15.53
2019-04-07T07:39:48.715Z,15.45
2019-04-07T07:42:22.475Z,15.58
2019-04-07T07:44:51.341Z,13.88
2019-04-07T07:47:22.613Z,15.35
2019-04-07T07:49:52.822Z,15.32
2019-04-07T07:52:23.253Z,15.35
2019-04-07T07:54:53.637Z,15.05
2019-04-07T07:57:24.743Z,15.32
2019-04-07T07:59:55.281Z,15.45
2019-04-07T08:02:25.233Z,14.38
2019-04-07T08:04:58.456Z,14.58
2019-04-07T08:07:26.845Z,13.83
2019-04-07T08:09:58.040Z,13.88
2019-04-07T08:12:32.394Z,14.55
2019-04-07T08:15:00.489Z,13.45
2019-04-07T08:17:33.172Z,14.05
2019-04-07T08:20:02.413Z,13.53
2019-04-07T08:22:39.156Z,13.62
2019-04-07T08:25:04.239Z,12.20
2019-04-07T08:27:34.427Z,12.98
2019-04-07T08:30:10.198Z,12.50
2019-04-07T08:32:36.957Z,11.88
2019-04-07T08:35:07.922Z,12.37
2019-04-07T08:37:38.348Z,11.93
2019-04-07T08:40:09.358Z,12.30
2019-04-07T08:42:39.637Z,12.00
2019-04-07T08:45:09.520Z,12.10
2019-04-07T08:47:39.261Z,11.38
2019-04-07T08:50:09.432Z,11.20
2019-04-07T08:52:42.519Z,11.45
2019-04-07T08:55:10.965Z,11.40
2019-04-07T08:57:41.275Z,10.10
2019-04-07T09:00:17.449Z,10.43
2019-04-07T09:03:00.776Z,10.35
2019-04-07T09:05:26.742Z,10.23
2019-04-07T09:07:52.884Z,10.45
2019-04-07T09:10:28.332Z,10.38
2019-04-07T09:13:03.005Z,10.28
2019-04-07T09:15:51.286Z,10.38
2019-04-07T09:18:29.226Z,9.45
2019-04-07T09:21:20.696Z,11.10
2019-04-07T09:24:09.310Z,10.72
2019-04-07T09:26:54.442Z,10.13
2019-04-07T09:29:49.413Z,9.48
2019-04-07T09:32:41.631Z,10.03
2019-04-07T09:35:36.559Z,9.43
2019-04-07T09:38:26.180Z,10.18
2019-04-07T09:41:27.456Z,10.00
2019-04-07T09:44:33.957Z,9.68
2019-04-07T09:47:20.341Z,9.95
2019-04-07T09:50:02.855Z,9.30
2019-04-07T09:52:53.521Z,9.38
2019-04-07T09:55:58.238Z,10.08
2019-04-07T09:58:48.024Z,9.20
2019-04-07T10:01:28.601Z,9.45
2019-04-07T10:04:13.557Z,9.10
2019-04-07T10:06:49.650Z,9.35
2019-04-07T10:09:25.681Z,8.98
2019-04-07T10:12:03.352Z,8.88
2019-04-07T10:15:07.597Z,9.13
2019-04-07T10:17:43.833Z,9.33
2019-04-07T10:20:29.409Z,10.23
2019-04-07T10:23:08.020Z,11.15
2019-04-07T10:25:56.142Z,10.58
2019-04-07T10:28:57.553Z,10.88
2019-04-07T10:31:49.435Z,12.25
2019-04-07T10:34:50.978Z,12.50
2019-04-07T10:37:27.964Z,12.10
2019-04-07T10:40:20.940Z,11.90
2019-04-07T10:42:57.631Z,12.00
2019-04-07T10:45:39.369Z,12.50
2019-04-07T10:48:18.189Z,12.85
2019-04-07T10:51:25.510Z,12.85
2019-04-07T10:54:14.406Z,12.98
2019-04-07T10:57:18.877Z,11.83
2019-04-07T11:00:05.846Z,12.78
2019-04-07T11:02:52.768Z,13.28
2019-04-07T11:05:30.401Z,13.50
2019-04-07T11:08:37.641Z,13.58
2019-04-07T11:11:26.720Z,14.65
2019-04-07T11:14:09.716Z,14.83
2019-04-07T11:16:51.121Z,15.03
2019-04-07T11:19:45.133Z,14.13
2019-04-07T11:22:40.220Z,14.73
2019-04-07T11:25:28.435Z,13.93
2019-04-07T11:28:32.556Z,12.05
2019-04-07T11:31:27.764Z,13.45
2019-04-07T11:34:19.598Z,13.32
2019-04-07T11:37:17.860Z,12.98
2019-04-07T11:40:12.866Z,13.43
2019-04-07T11:43:07.488Z,13.00
2019-04-07T11:46:00.000Z,12.50
2019-04-07T11:48:31.911Z,13.25
2019-04-07T11:51:21.005Z,12.53
2019-04-07T11:54:06.105Z,13.08
2019-04-07T11:56:57.750Z,14.70
2019-04-07T11:59:45.915Z,12.78
2019-04-07T12:02:35.194Z,11.95
2019-04-07T12:05:25.215Z,12.18
2019-04-07T12:08:13.925Z,12.23
2019-04-07T12:11:04.909Z,12.43
2019-04-07T12:13:58.698Z,12.68
2019-04-07T12:16:39.161Z,11.28
2019-04-07T12:19:14.539Z,12.25
2019-04-07T12:21:52.992Z,11.70
2019-04-07T12:24:32.518Z,11.38
2019-04-07T12:27:27.317Z,11.57
2019-04-07T12:30:15.476Z,11.78
2019-04-07T12:32:55.174Z,12.13
2019-04-07T12:35:39.534Z,11.45
2019-04-07T12:38:43.185Z,12.10
2019-04-07T12:41:21.687Z,11.88
2019-04-07T12:44:00.616Z,12.60
2019-04-07T12:46:48.192Z,11.55
2019-04-07T12:49:39.199Z,11.85
2019-04-07T12:52:45.182Z,11.10
2019-04-07T12:55:39.317Z,11.15
2019-04-07T12:58:17.389Z,10.90
2019-04-07T13:00:59.956Z,12.00
2019-04-07T13:03:49.722Z,11.80
2019-04-07T13:06:30.191Z,11.12
2019-04-07T13:09:13.873Z,12.68
2019-04-07T13:12:06.062Z,12.70
2019-04-07T13:14:50.239Z,12.33
2019-04-07T13:17:55.234Z,11.63
2019-04-07T13:20:33.313Z,12.80
2019-04-07T13:23:12.257Z,11.33
2019-04-07T13:26:19.466Z,10.82
2019-04-07T13:29:01.797Z,11.10
2019-04-07T13:31:44.000Z,11.10
2019-04-07T13:34:28.581Z,12.53
2019-04-07T13:37:13.477Z,12.35
2019-04-07T13:39:58.788Z,12.55
2019-04-07T13:43:00.702Z,11.43
2019-04-07T13:45:44.627Z,11.38
2019-04-07T13:48:23.838Z,12.05
2019-04-07T13:51:22.329Z,11.33
2019-04-07T13:54:12.391Z,11.90
2019-04-07T13:56:54.889Z,10.78
2019-04-07T13:59:42.626Z,10.98
2019-04-07T14:02:18.583Z,9.80
2019-04-07T14:05:03.188Z,9.45
2019-04-07T14:07:40.169Z,8.88
2019-04-07T14:10:28.563Z,9.23
2019-04-07T14:13:23.300Z,8.58
2019-04-07T14:16:11.140Z,9.50
2019-04-07T14:18:58.767Z,8.65
2019-04-07T14:21:50.816Z,8.98
2019-04-07T14:24:57.971Z,9.40
2019-04-07T14:27:37.336Z,9.23
2019-04-07T14:30:22.292Z,9.48
2019-04-07T14:33:10.071Z,8.43
2019-04-07T14:35:46.161Z,8.48
2019-04-07T14:38:25.537Z,9.70
2019-04-07T14:41:13.867Z,9.30
2019-04-07T14:43:51.782Z,9.63
2019-04-07T14:46:35.949Z,9.10
2019-04-07T14:49:16.010Z,8.95
2019-04-07T14:52:01.346Z,9.10
2019-04-07T14:54:56.466Z,8.10
2019-04-07T14:57:43.721Z,8.48
2019-04-07T15:00:27.280Z,10.48
2019-04-07T15:02:58.018Z,9.60
2019-04-07T15:05:31.026Z,9.88
2019-04-07T15:08:12.524Z,10.68
2019-04-07T15:10:46.204Z,11.28
2019-04-07T15:13:21.289Z,11.50
2019-04-07T15:15:51.433Z,11.85
2019-04-07T15:18:21.800Z,12.07
2019-04-07T15:20:51.699Z,11.40
2019-04-07T15:23:21.639Z,12.23
2019-04-07T15:25:51.601Z,11.63
2019-04-07T15:28:22.567Z,12.10
2019-04-07T15:30:52.484Z,11.08
2019-04-07T15:33:22.545Z,10.58
2019-04-07T15:35:52.452Z,10.93
2019-04-07T15:38:24.821Z,9.63
2019-04-07T15:40:53.670Z,11.20
2019-04-07T15:43:24.268Z,13.00
2019-04-07T15:45:54.647Z,12.55
2019-04-07T15:48:25.925Z,12.07
2019-04-07T15:50:56.212Z,12.63
2019-04-07T15:53:26.149Z,12.23
2019-04-07T15:56:01.964Z,17.85
2019-04-07T15:58:28.522Z,12.90
2019-04-07T16:00:59.045Z,12.23
2019-04-07T16:03:28.861Z,12.55
2019-04-07T16:05:59.158Z,12.88
2019-04-07T16:08:30.805Z,12.58
2019-04-07T16:11:00.834Z,12.70
2019-04-07T16:13:31.734Z,12.58
2019-04-07T16:16:01.854Z,12.43
2019-04-07T16:18:36.991Z,11.20
2019-04-07T16:21:07.175Z,12.18
2019-04-07T16:23:36.393Z,12.35
2019-04-07T16:26:06.667Z,11.15
2019-04-07T16:28:36.464Z,12.18
2019-04-07T16:31:07.355Z,11.50
2019-04-07T16:33:37.701Z,10.40
2019-04-07T16:36:08.534Z,12.20
2019-04-07T16:38:38.604Z,11.08
2019-04-07T16:41:12.341Z,10.55
2019-04-07T16:43:39.890Z,10.68
2019-04-07T16:46:10.842Z,11.63
2019-04-07T16:48:41.507Z,9.55
2019-04-07T16:51:11.473Z,10.48
2019-04-07T16:53:42.977Z,10.75
2019-04-07T16:56:13.337Z,10.40
2019-04-07T16:58:43.685Z,10.90
2019-04-07T17:01:14.276Z,11.55
2019-04-07T17:03:45.311Z,10.48
2019-04-07T17:06:15.882Z,10.08
2019-04-07T17:08:46.581Z,11.08
2019-04-07T17:11:17.035Z,10.25
2019-04-07T17:13:47.257Z,10.32
2019-04-07T17:16:22.145Z,9.65
2019-04-07T17:18:50.290Z,9.63
2019-04-07T17:21:21.270Z,10.63
2019-04-07T17:23:55.314Z,10.10
2019-04-07T17:26:23.841Z,10.75
2019-04-07T17:28:56.057Z,10.80
2019-04-07T17:31:27.990Z,9.20
2019-04-07T17:33:58.582Z,10.25
2019-04-07T17:36:29.296Z,10.13
2019-04-07T17:39:21.614Z,10.70
2019-04-07T17:41:52.031Z,9.38
2019-04-07T17:44:47.832Z,9.43
2019-04-07T17:47:50.205Z,9.90
2019-04-07T17:50:33.906Z,9.40
2019-04-07T17:53:26.693Z,10.10
2019-04-07T17:56:08.717Z,9.80
2019-04-07T17:58:50.029Z,9.90
2019-04-07T18:01:30.458Z,8.85
2019-04-07T18:04:23.661Z,10.45
2019-04-07T18:07:09.993Z,9.18
2019-04-07T18:10:10.796Z,9.23
2019-04-07T18:12:49.749Z,8.98
2019-04-07T18:15:44.523Z,9.45
2019-04-07T18:18:45.279Z,9.05
2019-04-07T18:21:32.023Z,8.63
2019-04-07T18:24:35.985Z,9.03
2019-04-07T18:27:34.204Z,8.88
2019-04-07T18:30:23.573Z,9.45
2019-04-07T18:33:16.388Z,9.05
2019-04-07T18:35:56.097Z,9.00
2019-04-07T18:38:46.856Z,8.73
2019-04-07T18:41:36.369Z,8.13
2019-04-07T18:44:30.530Z,9.78
2019-04-07T18:47:15.345Z,8.60
2019-04-07T18:50:03.952Z,9.15
2019-04-07T18:53:00.148Z,9.10
2019-04-07T18:55:55.742Z,8.78
2019-04-07T18:58:47.643Z,8.30
2019-04-07T19:01:34.254Z,8.83
2019-04-07T19:04:24.154Z,8.53
2019-04-07T19:07:02.142Z,8.20
2019-04-07T19:10:05.725Z,8.13
2019-04-07T19:12:36.970Z,8.15
2019-04-07T19:15:31.097Z,8.35
2019-04-07T19:18:08.092Z,7.92
2019-04-07T19:21:16.162Z,8.18
2019-04-07T19:24:07.629Z,8.53
2019-04-07T19:27:05.658Z,9.00
2019-04-07T19:29:57.987Z,8.05
2019-04-07T19:32:52.630Z,8.75
2019-04-07T19:35:49.932Z,8.48
2019-04-07T19:38:51.371Z,8.03
2019-04-07T19:41:47.230Z,8.15
2019-04-07T19:44:35.577Z,7.62
2019-04-07T19:47:34.537Z,8.40
2019-04-07T19:50:30.891Z,7.85
2019-04-07T19:53:22.798Z,8.08
2019-04-07T19:56:27.292Z,8.10
2019-04-07T19:59:14.673Z,8.00
2019-04-07T20:02:09.639Z,7.22
2019-04-07T20:04:59.334Z,7.95
2019-04-07T20:07:44.114Z,7.83
2019-04-07T20:10:31.825Z,7.67
2019-04-07T20:13:24.085Z,8.03
2019-04-07T20:16:00.353Z,8.00
2019-04-07T20:18:48.117Z,7.78
2019-04-07T20:21:42.217Z,7.85
2019-04-07T20:24:38.289Z,7.95
2019-04-07T20:27:17.516Z,7.28
2019-04-07T20:30:11.264Z,8.03
2019-04-07T20:32:47.048Z,6.75
2019-04-07T20:35:35.661Z,6.87
2019-04-07T20:38:19.816Z,7.47
2019-04-07T20:40:55.307Z,7.45
2019-04-07T20:43:33.778Z,6.97
2019-04-07T20:46:26.248Z,7.65
2019-04-07T20:49:15.897Z,7.62
2019-04-07T20:52:03.862Z,7.12
2019-04-07T20:54:44.694Z,7.72
2019-04-07T20:57:28.515Z,7.37
2019-04-07T21:00:16.539Z,8.00
2019-04-07T21:03:11.074Z,8.50
2019-04-07T21:05:48.345Z,7.83
2019-04-07T21:08:40.225Z,7.72
2019-04-07T21:11:20.474Z,7.50
2019-04-07T21:14:21.701Z,7.60
2019-04-07T21:17:01.038Z,8.45
2019-04-07T21:19:55.470Z,7.83
2019-04-07T21:22:31.658Z,8.15
2019-04-07T21:25:26.458Z,7.53
2019-04-07T21:28:10.537Z,8.23
2019-04-07T21:31:15.980Z,7.60
2019-04-07T21:33:50.819Z,6.78
2019-04-07T21:36:52.580Z,7.45
2019-04-07T21:39:35.236Z,7.78
2019-04-07T21:42:30.770Z,8.03
2019-04-07T21:45:29.089Z,7.80
2019-04-07T21:48:09.573Z,8.40
2019-04-07T21:51:04.663Z,8.20
2019-04-07T21:53:43.212Z,8.98
2019-04-07T21:56:38.984Z,9.30
2019-04-07T21:59:31.105Z,9.20
2019-04-07T22:02:20.205Z,9.18
2019-04-07T22:05:04.581Z,8.95
2019-04-07T22:07:53.579Z,9.15
2019-04-07T22:10:24.251Z,8.90
2019-04-07T22:12:54.201Z,8.98
2019-04-07T22:15:24.629Z,9.95
2019-04-07T22:17:54.353Z,9.10
2019-04-07T22:20:25.013Z,9.65
2019-04-07T22:22:59.770Z,10.05
2019-04-07T22:25:36.204Z,10.08
2019-04-07T22:28:05.957Z,8.90
2019-04-07T22:30:39.653Z,9.33
2019-04-07T22:33:06.613Z,9.70
2019-04-07T22:35:38.357Z,10.53
2019-04-07T22:38:08.058Z,8.50
2019-04-07T22:40:39.133Z,8.53
2019-04-07T22:43:09.343Z,9.90
2019-04-07T22:45:39.350Z,9.18
2019-04-07T22:48:09.983Z,9.45
2019-04-07T22:50:39.849Z,8.63
2019-04-07T22:53:09.536Z,8.65
2019-04-07T22:55:40.412Z,9.53
2019-04-07T22:58:10.126Z,9.58
2019-04-07T23:00:40.334Z,9.63
2019-04-07T23:03:12.072Z,9.03
2019-04-07T23:05:41.997Z,9.95
2019-04-07T23:08:12.456Z,9.28
2019-04-07T23:10:44.232Z,9.30
2019-04-07T23:13:14.181Z,10.08
2019-04-07T23:15:47.040Z,9.48
2019-04-07T23:18:17.885Z,9.28
2019-04-07T23:20:47.983Z,10.65
2019-04-07T23:23:17.754Z,10.58
2019-04-07T23:25:47.488Z,10.10
2019-04-07T23:28:17.274Z,9.23
2019-04-07T23:30:47.201Z,8.88
2019-04-07T23:33:17.908Z,9.73
2019-04-07T23:35:48.830Z,10.15
2019-04-07T23:38:19.742Z,9.95
2019-04-07T23:40:49.612Z,9.45
2019-04-07T23:43:19.526Z,10.05
2019-04-07T23:45:49.654Z,9.75
2019-04-07T23:48:19.503Z,9.95
2019-04-07T23:50:49.855Z,9.28
2019-04-07T23:53:55.837Z,9.58
2019-04-07T23:56:25.639Z,9.28
2019-04-07T23:58:56.253Z,9.53
